createdAt,value
2017-12-04T00:00:21.852Z,46.68
2017-12-04T00:01:21.841Z,42.96
2017-12-04T00:02:21.836Z,40.02
2017-12-04T00:03:21.815Z,42.16
2017-12-04T00:04:21.804Z,39.90
2017-12-04T00:05:21.793Z,41.60
2017-12-04T00:06:21.785Z,40.27
2017-12-04T00:07:21.782Z,41.27
2017-12-04T00:08:21.764Z,40.24
2017-12-04T00:09:21.763Z,40.77
2017-12-04T00:10:22.667Z,39.39
2017-12-04T00:11:21.765Z,36.03
2017-12-04T00:12:21.731Z,39.28
2017-12-04T00:13:21.717Z,38.84
2017-12-04T00:14:21.709Z,38.73
2017-12-04T00:15:21.697Z,36.90
2017-12-04T00:16:21.685Z,37.40
2017-12-04T00:17:21.675Z,37.37
2017-12-04T00:18:21.664Z,39.94
2017-12-04T00:19:21.652Z,41.17
2017-12-04T00:20:21.657Z,37.12
2017-12-04T00:21:21.633Z,39.30
2017-12-04T00:22:21.624Z,40.36
2017-12-04T00:23:21.618Z,38.02
2017-12-04T00:24:21.614Z,37.18
2017-12-04T00:25:21.604Z,38.29
2017-12-04T00:26:21.581Z,36.67
2017-12-04T00:27:21.578Z,38.30
2017-12-04T00:28:21.557Z,36.84
2017-12-04T00:29:21.559Z,36.00
2017-12-04T00:30:21.542Z,39.36
2017-12-04T00:31:21.534Z,42.35
2017-12-04T00:32:21.545Z,39.12
2017-12-04T00:33:21.507Z,36.02
2017-12-04T00:34:21.494Z,36.72
2017-12-04T00:35:21.490Z,38.73
2017-12-04T00:36:21.488Z,38.50
2017-12-04T00:37:21.469Z,38.44
2017-12-04T00:38:21.464Z,37.76
2017-12-04T00:39:21.447Z,39.72
2017-12-04T00:40:21.444Z,37.30
2017-12-04T00:41:21.432Z,39.12
2017-12-04T00:42:21.424Z,37.95
2017-12-04T00:43:21.404Z,36.37
2017-12-04T00:44:21.399Z,38.31
2017-12-04T00:45:21.385Z,36.48
2017-12-04T00:46:21.382Z,35.66
2017-12-04T00:47:21.367Z,36.19
2017-12-04T00:48:21.370Z,34.98
2017-12-04T00:49:21.434Z,36.57
2017-12-04T00:50:21.384Z,35.49
2017-12-04T00:51:21.320Z,34.98
2017-12-04T00:52:21.318Z,36.01
2017-12-04T00:53:21.307Z,37.29
2017-12-04T00:54:21.297Z,37.30
2017-12-04T00:55:21.287Z,35.14
2017-12-04T00:56:21.274Z,36.91
2017-12-04T00:57:21.272Z,36.51
2017-12-04T00:58:21.263Z,40.70
2017-12-04T00:59:21.250Z,37.12
2017-12-04T01:00:21.247Z,36.12
2017-12-04T01:01:21.225Z,34.87
2017-12-04T01:02:21.216Z,37.02
2017-12-04T01:03:21.203Z,34.97
2017-12-04T01:04:21.192Z,33.84
2017-12-04T01:05:21.187Z,36.83
2017-12-04T01:06:21.173Z,37.01
2017-12-04T01:07:21.162Z,36.22
2017-12-04T01:08:21.154Z,38.15
2017-12-04T01:09:21.145Z,37.72
2017-12-04T01:10:21.135Z,37.41
2017-12-04T01:11:21.138Z,34.32
2017-12-04T01:12:21.113Z,39.54
2017-12-04T01:13:21.108Z,35.82
2017-12-04T01:14:21.094Z,36.42
2017-12-04T01:15:21.080Z,36.08
2017-12-04T01:16:21.097Z,37.23
2017-12-04T01:17:21.066Z,38.20
2017-12-04T01:18:21.076Z,38.58
2017-12-04T01:19:21.065Z,34.88
2017-12-04T01:20:21.030Z,37.15
2017-12-04T01:21:21.020Z,40.10
2017-12-04T01:22:21.012Z,38.30
2017-12-04T01:23:21.003Z,36.38
2017-12-04T01:24:20.997Z,38.02
2017-12-04T01:25:20.987Z,38.56
2017-12-04T01:26:20.977Z,36.10
2017-12-04T01:27:20.958Z,36.18
2017-12-04T01:28:20.955Z,38.69
2017-12-04T01:29:20.944Z,38.18
2017-12-04T01:30:20.929Z,36.57
2017-12-04T01:31:20.923Z,34.17
2017-12-04T01:32:20.911Z,35.58
2017-12-04T01:33:20.905Z,37.68
2017-12-04T01:34:20.896Z,35.14
2017-12-04T01:35:20.887Z,33.60
2017-12-04T01:36:20.877Z,36.81
2017-12-04T01:37:20.868Z,34.48
2017-12-04T01:38:20.857Z,38.44
2017-12-04T01:39:20.844Z,35.58
2017-12-04T01:40:21.660Z,34.62
2017-12-04T01:41:20.836Z,34.93
2017-12-04T01:42:20.809Z,38.25
2017-12-04T01:43:20.797Z,34.40
2017-12-04T01:44:20.792Z,36.80
2017-12-04T01:45:20.785Z,37.13
2017-12-04T01:46:20.770Z,38.02
2017-12-04T01:47:20.761Z,36.02
2017-12-04T01:48:20.751Z,33.14
2017-12-04T01:49:20.733Z,34.27
2017-12-04T01:50:20.729Z,34.19
2017-12-04T01:51:21.661Z,32.14
2017-12-04T01:52:20.710Z,34.62
2017-12-04T01:53:20.696Z,33.58
2017-12-04T01:54:20.691Z,34.42
2017-12-04T01:55:20.680Z,37.78
2017-12-04T01:56:20.669Z,33.22
2017-12-04T01:57:20.661Z,35.08
2017-12-04T01:58:20.656Z,34.08
2017-12-04T01:59:20.637Z,33.97
2017-12-04T02:00:20.628Z,35.54
2017-12-04T02:01:20.613Z,34.68
2017-12-04T02:02:20.601Z,32.58
2017-12-04T02:03:20.595Z,34.18
2017-12-04T02:04:20.596Z,34.60
2017-12-04T02:05:20.578Z,36.63
2017-12-04T02:06:20.568Z,33.95
2017-12-04T02:07:20.558Z,34.18
2017-12-04T02:08:21.171Z,35.20
2017-12-04T02:09:20.541Z,36.35
2017-12-04T02:10:20.532Z,34.98
2017-12-04T02:11:20.524Z,35.49
2017-12-04T02:12:20.509Z,35.58
2017-12-04T02:13:20.508Z,34.02
2017-12-04T02:14:20.494Z,33.96
2017-12-04T02:15:21.165Z,34.23
2017-12-04T02:16:20.468Z,34.10
2017-12-04T02:17:20.457Z,34.44
2017-12-04T02:18:20.447Z,32.54
2017-12-04T02:19:20.432Z,36.70
2017-12-04T02:20:20.433Z,33.28
2017-12-04T02:21:21.170Z,33.86
2017-12-04T02:22:20.401Z,33.01
2017-12-04T02:23:20.394Z,32.94
2017-12-04T02:24:20.389Z,33.60
2017-12-04T02:25:20.379Z,30.30
2017-12-04T02:26:20.366Z,31.23
2017-12-04T02:27:20.361Z,33.08
2017-12-04T02:28:20.344Z,37.22
2017-12-04T02:29:20.338Z,35.33
2017-12-04T02:30:20.329Z,33.41
2017-12-04T02:31:20.324Z,34.06
2017-12-04T02:32:20.305Z,34.78
2017-12-04T02:33:20.304Z,35.23
2017-12-04T02:34:20.286Z,34.58
2017-12-04T02:35:20.284Z,34.83
2017-12-04T02:36:20.275Z,32.63
2017-12-04T02:37:20.257Z,30.77
2017-12-04T02:38:20.245Z,31.35
2017-12-04T02:39:20.238Z,32.26
2017-12-04T02:40:20.227Z,33.30
2017-12-04T02:41:20.213Z,31.73
2017-12-04T02:42:20.205Z,31.08
2017-12-04T02:43:20.197Z,31.00
2017-12-04T02:44:20.186Z,31.66
2017-12-04T02:45:20.611Z,30.52
2017-12-04T02:46:20.165Z,31.04
2017-12-04T02:47:20.154Z,34.02
2017-12-04T02:48:20.145Z,30.97
2017-12-04T02:49:20.138Z,27.80
2017-12-04T02:50:20.129Z,29.66
2017-12-04T02:51:20.113Z,33.28
2017-12-04T02:52:20.106Z,28.16
2017-12-04T02:53:20.091Z,28.20
2017-12-04T02:54:20.086Z,29.06
2017-12-04T02:55:20.073Z,29.61
2017-12-04T02:56:20.064Z,27.33
2017-12-04T02:57:20.050Z,26.22
2017-12-04T02:58:20.053Z,28.11
2017-12-04T02:59:20.030Z,27.47
2017-12-04T03:00:20.024Z,28.94
2017-12-04T03:01:20.014Z,31.32
2017-12-04T03:02:20.001Z,29.54
2017-12-04T03:03:19.997Z,28.28
2017-12-04T03:04:19.989Z,27.79
2017-12-04T03:05:19.980Z,28.94
2017-12-04T03:06:19.966Z,26.94
2017-12-04T03:07:19.956Z,28.12
2017-12-04T03:08:19.954Z,24.25
2017-12-04T03:09:19.958Z,27.37
2017-12-04T03:10:19.922Z,24.90
2017-12-04T03:11:19.912Z,26.85
2017-12-04T03:12:19.904Z,24.46
2017-12-04T03:13:19.892Z,28.58
2017-12-04T03:14:19.883Z,25.06
2017-12-04T03:15:19.884Z,23.36
2017-12-04T03:16:19.863Z,26.06
2017-12-04T03:17:19.853Z,24.76
2017-12-04T03:18:19.870Z,24.07
2017-12-04T03:19:19.835Z,25.46
2017-12-04T03:20:19.829Z,28.25
2017-12-04T03:21:19.817Z,26.69
2017-12-04T03:22:19.803Z,23.70
2017-12-04T03:23:19.795Z,23.66
2017-12-04T03:24:19.785Z,26.81
2017-12-04T03:25:19.775Z,26.72
2017-12-04T03:26:19.776Z,25.61
2017-12-04T03:27:19.756Z,24.57
2017-12-04T03:28:19.746Z,23.65
2017-12-04T03:29:19.733Z,26.13
2017-12-04T03:30:19.719Z,24.63
2017-12-04T03:31:19.723Z,25.31
2017-12-04T03:32:20.688Z,24.59
2017-12-04T03:33:19.693Z,26.58
2017-12-04T03:34:19.686Z,28.14
2017-12-04T03:35:19.676Z,29.68
2017-12-04T03:36:19.682Z,21.72
2017-12-04T03:37:19.659Z,25.18
2017-12-04T03:38:19.646Z,27.34
2017-12-04T03:39:19.633Z,27.33
2017-12-04T03:40:19.631Z,28.77
2017-12-04T03:41:19.619Z,30.49
2017-12-04T03:42:19.608Z,31.89
2017-12-04T03:43:19.598Z,35.14
2017-12-04T03:44:19.591Z,28.83
2017-12-04T03:45:19.581Z,26.50
2017-12-04T03:46:19.571Z,28.20
2017-12-04T03:47:19.563Z,32.56
2017-12-04T03:48:19.552Z,28.67
2017-12-04T03:49:19.545Z,30.94
2017-12-04T03:50:19.531Z,31.61
2017-12-04T03:51:19.517Z,32.27
2017-12-04T03:52:19.512Z,27.70
2017-12-04T03:53:19.506Z,27.77
2017-12-04T03:54:19.491Z,30.98
2017-12-04T03:55:19.477Z,29.65
2017-12-04T03:56:19.472Z,31.85
2017-12-04T03:57:19.462Z,29.04
2017-12-04T03:58:19.446Z,31.27
2017-12-04T03:59:20.198Z,32.57
2017-12-04T04:00:19.442Z,31.50
2017-12-04T04:01:19.422Z,30.26
2017-12-04T04:02:19.426Z,27.20
2017-12-04T04:03:19.406Z,26.44
2017-12-04T04:04:19.397Z,27.64
2017-12-04T04:05:19.391Z,26.91
2017-12-04T04:06:19.384Z,26.74
2017-12-04T04:07:19.363Z,27.83
2017-12-04T04:08:20.210Z,26.13
2017-12-04T04:09:19.349Z,31.66
2017-12-04T04:10:19.337Z,30.07
2017-12-04T04:11:19.327Z,31.46
2017-12-04T04:12:19.318Z,36.52
2017-12-04T04:13:19.317Z,33.18
2017-12-04T04:14:19.296Z,31.52
2017-12-04T04:15:19.292Z,31.76
2017-12-04T04:16:19.284Z,29.03
2017-12-04T04:17:19.272Z,30.94
2017-12-04T04:18:19.267Z,28.58
2017-12-04T04:19:19.259Z,32.04
2017-12-04T04:20:19.239Z,33.16
2017-12-04T04:21:19.229Z,36.00
2017-12-04T04:22:19.219Z,30.34
2017-12-04T04:23:19.213Z,31.49
2017-12-04T04:24:19.204Z,30.29
2017-12-04T04:25:19.192Z,28.24
2017-12-04T04:26:19.177Z,25.03
2017-12-04T04:27:19.173Z,26.85
2017-12-04T04:28:19.165Z,29.37
2017-12-04T04:29:19.155Z,33.24
2017-12-04T04:30:19.549Z,29.31
2017-12-04T04:31:19.140Z,27.30
2017-12-04T04:32:19.133Z,32.32
2017-12-04T04:33:19.117Z,29.14
2017-12-04T04:34:19.109Z,28.83
2017-12-04T04:35:19.097Z,32.65
2017-12-04T04:36:19.083Z,29.63
2017-12-04T04:37:19.091Z,30.54
2017-12-04T04:38:19.066Z,31.33
2017-12-04T04:39:19.068Z,31.07
2017-12-04T04:40:19.719Z,34.04
2017-12-04T04:41:19.044Z,32.87
2017-12-04T04:42:19.035Z,36.50
2017-12-04T04:43:19.023Z,33.81
2017-12-04T04:44:19.716Z,31.85
2017-12-04T04:45:19.005Z,31.21
2017-12-04T04:46:18.989Z,34.44
2017-12-04T04:47:18.979Z,34.05
2017-12-04T04:48:18.977Z,36.39
2017-12-04T04:49:18.962Z,32.66
2017-12-04T04:50:19.709Z,35.62
2017-12-04T04:51:19.715Z,33.38
2017-12-04T04:52:18.940Z,36.74
2017-12-04T04:53:18.923Z,34.80
2017-12-04T04:54:18.912Z,39.17
2017-12-04T04:55:18.907Z,41.13
2017-12-04T04:56:18.910Z,40.06
2017-12-04T04:57:18.903Z,35.51
2017-12-04T04:58:18.875Z,34.86
2017-12-04T04:59:18.871Z,37.33
2017-12-04T05:00:18.855Z,32.18
2017-12-04T05:01:18.852Z,32.87
2017-12-04T05:02:18.866Z,31.38
2017-12-04T05:03:18.830Z,33.82
2017-12-04T05:04:18.824Z,37.14
2017-12-04T05:05:18.810Z,32.99
2017-12-04T05:06:18.799Z,39.72
2017-12-04T05:07:18.785Z,34.67
2017-12-04T05:08:18.783Z,33.19
2017-12-04T05:09:18.777Z,33.38
2017-12-04T05:10:18.762Z,37.90
2017-12-04T05:11:18.756Z,37.00
2017-12-04T05:12:18.749Z,42.76
2017-12-04T05:13:18.736Z,37.77
2017-12-04T05:14:18.729Z,38.44
2017-12-04T05:15:18.730Z,34.27
2017-12-04T05:16:18.707Z,35.64
2017-12-04T05:17:18.708Z,37.78
2017-12-04T05:18:18.691Z,36.05
2017-12-04T05:19:18.674Z,33.32
2017-12-04T05:20:18.673Z,36.71
2017-12-04T05:21:18.653Z,36.53
2017-12-04T05:22:18.648Z,34.73
2017-12-04T05:23:18.637Z,39.24
2017-12-04T05:24:19.225Z,34.13
2017-12-04T05:25:18.615Z,36.69
2017-12-04T05:26:18.614Z,34.28
2017-12-04T05:27:18.605Z,36.58
2017-12-04T05:28:18.596Z,29.84
2017-12-04T05:29:18.584Z,32.37
2017-12-04T05:30:18.575Z,36.33
2017-12-04T05:31:18.573Z,37.25
2017-12-04T05:32:18.566Z,40.46
2017-12-04T05:33:18.545Z,37.28
2017-12-04T05:34:18.542Z,34.31
2017-12-04T05:35:18.530Z,35.45
2017-12-04T05:36:18.520Z,37.26
2017-12-04T05:37:18.503Z,38.81
2017-12-04T05:38:18.497Z,36.49
2017-12-04T05:39:18.486Z,35.56
2017-12-04T05:40:18.488Z,32.84
2017-12-04T05:41:18.473Z,34.29
2017-12-04T05:42:18.452Z,32.16
2017-12-04T05:43:18.467Z,31.74
2017-12-04T05:44:18.442Z,33.14
2017-12-04T05:45:18.434Z,36.38
2017-12-04T05:46:18.420Z,37.69
2017-12-04T05:47:18.411Z,38.53
2017-12-04T05:48:18.400Z,34.69
2017-12-04T05:49:18.397Z,32.63
2017-12-04T05:50:18.385Z,33.80
2017-12-04T05:51:18.373Z,35.52
2017-12-04T05:52:18.367Z,32.25
2017-12-04T05:53:18.356Z,31.25
2017-12-04T05:54:19.241Z,31.18
2017-12-04T05:55:18.335Z,33.18
2017-12-04T05:56:19.240Z,32.34
2017-12-04T05:57:18.341Z,33.62
2017-12-04T05:58:18.310Z,37.48
2017-12-04T05:59:18.299Z,38.00
2017-12-04T06:00:18.308Z,34.61
2017-12-04T06:01:18.294Z,33.93
2017-12-04T06:02:18.269Z,32.42
2017-12-04T06:03:18.254Z,31.69
2017-12-04T06:04:18.252Z,33.24
2017-12-04T06:05:18.241Z,32.56
2017-12-04T06:06:18.224Z,29.84
2017-12-04T06:07:18.227Z,32.70
2017-12-04T06:08:18.216Z,38.52
2017-12-04T06:09:18.201Z,36.85
2017-12-04T06:10:18.198Z,36.06
2017-12-04T06:11:18.214Z,32.43
2017-12-04T06:12:18.174Z,33.35
2017-12-04T06:13:18.750Z,37.25
2017-12-04T06:14:18.159Z,32.17
2017-12-04T06:15:18.741Z,35.20
2017-12-04T06:16:18.136Z,34.32
2017-12-04T06:17:18.130Z,31.88
2017-12-04T06:18:18.119Z,32.25
2017-12-04T06:19:18.110Z,32.10
2017-12-04T06:20:18.104Z,36.40
2017-12-04T06:21:18.089Z,34.94
2017-12-04T06:22:18.086Z,35.96
2017-12-04T06:23:18.074Z,36.71
2017-12-04T06:24:18.060Z,34.99
2017-12-04T06:25:18.068Z,34.20
2017-12-04T06:26:18.050Z,38.17
2017-12-04T06:27:18.037Z,34.36
2017-12-04T06:28:18.032Z,35.05
2017-12-04T06:29:18.037Z,34.88
2017-12-04T06:30:18.011Z,33.69
2017-12-04T06:31:17.996Z,34.78
2017-12-04T06:32:17.987Z,33.81
2017-12-04T06:33:17.982Z,34.66
2017-12-04T06:34:17.969Z,36.49
2017-12-04T06:35:17.962Z,36.70
2017-12-04T06:36:17.954Z,39.85
2017-12-04T06:37:17.935Z,42.66
2017-12-04T06:38:17.933Z,37.68
2017-12-04T06:39:17.922Z,37.38
2017-12-04T06:40:17.916Z,33.64
2017-12-04T06:41:17.906Z,37.04
2017-12-04T06:42:17.899Z,37.14
2017-12-04T06:43:17.884Z,34.50
2017-12-04T06:44:17.875Z,33.13
2017-12-04T06:45:17.862Z,35.65
2017-12-04T06:46:17.871Z,36.56
2017-12-04T06:47:17.849Z,38.48
2017-12-04T06:48:17.841Z,31.18
2017-12-04T06:49:17.834Z,34.14
2017-12-04T06:50:17.827Z,35.77
2017-12-04T06:51:17.815Z,37.27
2017-12-04T06:52:17.797Z,35.89
2017-12-04T06:53:17.790Z,33.60
2017-12-04T06:54:17.782Z,43.36
2017-12-04T06:55:17.769Z,35.27
2017-12-04T06:56:17.770Z,34.14
2017-12-04T06:57:17.754Z,31.68
2017-12-04T06:58:17.742Z,29.94
2017-12-04T06:59:17.740Z,35.10
2017-12-04T07:00:17.724Z,35.34
2017-12-04T07:01:17.720Z,34.46
2017-12-04T07:02:17.709Z,35.83
2017-12-04T07:03:17.720Z,34.23
2017-12-04T07:04:17.695Z,29.63
2017-12-04T07:05:17.673Z,30.51
2017-12-04T07:06:17.669Z,28.19
2017-12-04T07:07:17.662Z,29.91
2017-12-04T07:08:17.652Z,28.91
2017-12-04T07:09:17.648Z,29.44
2017-12-04T07:10:17.634Z,30.12
2017-12-04T07:11:17.624Z,32.42
2017-12-04T07:12:17.614Z,33.82
2017-12-04T07:13:17.605Z,33.80
2017-12-04T07:14:17.596Z,30.10
2017-12-04T07:15:17.587Z,33.59
2017-12-04T07:16:17.583Z,33.78
2017-12-04T07:17:17.566Z,32.43
2017-12-04T07:18:17.558Z,34.34
2017-12-04T07:19:17.550Z,35.91
2017-12-04T07:20:18.238Z,38.69
2017-12-04T07:21:18.883Z,35.22
2017-12-04T07:22:17.528Z,37.23
2017-12-04T07:23:17.520Z,30.90
2017-12-04T07:24:17.504Z,34.46
2017-12-04T07:25:17.496Z,34.50
2017-12-04T07:26:17.481Z,38.46
2017-12-04T07:27:17.475Z,38.09
2017-12-04T07:28:17.467Z,38.06
2017-12-04T07:29:17.464Z,33.78
2017-12-04T07:30:17.456Z,37.80
2017-12-04T07:31:17.437Z,39.36
2017-12-04T07:32:17.426Z,36.76
2017-12-04T07:33:17.426Z,36.88
2017-12-04T07:34:17.418Z,37.99
2017-12-04T07:35:17.401Z,39.07
2017-12-04T07:36:17.396Z,37.18
2017-12-04T07:37:17.381Z,35.24
2017-12-04T07:38:17.369Z,40.87
2017-12-04T07:39:17.368Z,34.70
2017-12-04T07:40:17.356Z,35.60
2017-12-04T07:41:17.351Z,35.96
2017-12-04T07:42:17.348Z,34.75
2017-12-04T07:43:17.330Z,32.98
2017-12-04T07:44:17.315Z,33.22
2017-12-04T07:45:17.311Z,40.05
2017-12-04T07:46:17.310Z,36.36
2017-12-04T07:47:17.299Z,35.18
2017-12-04T07:48:17.286Z,38.33
2017-12-04T07:49:17.278Z,39.54
2017-12-04T07:50:17.265Z,36.11
2017-12-04T07:51:17.263Z,34.20
2017-12-04T07:52:17.246Z,38.28
2017-12-04T07:53:17.237Z,42.98
2017-12-04T07:54:17.227Z,40.59
2017-12-04T07:55:17.218Z,36.95
2017-12-04T07:56:17.210Z,40.20
2017-12-04T07:57:17.200Z,41.18
2017-12-04T07:58:17.770Z,38.49
2017-12-04T07:59:17.188Z,41.62
2017-12-04T08:00:17.174Z,42.40
2017-12-04T08:01:17.169Z,43.85
2017-12-04T08:02:17.154Z,43.64
2017-12-04T08:03:17.166Z,40.16
2017-12-04T08:04:17.135Z,38.68
2017-12-04T08:05:17.776Z,38.54
2017-12-04T08:06:17.120Z,38.18
2017-12-04T08:07:17.107Z,42.18
2017-12-04T08:08:17.101Z,37.39
2017-12-04T08:09:17.092Z,41.21
2017-12-04T08:10:17.082Z,40.81
2017-12-04T08:11:17.071Z,43.90
2017-12-04T08:12:17.061Z,41.98
2017-12-04T08:13:17.054Z,43.56
2017-12-04T08:14:17.048Z,41.27
2017-12-04T08:15:17.035Z,39.78
2017-12-04T08:16:17.033Z,37.74
2017-12-04T08:17:17.021Z,39.65
2017-12-04T08:18:17.004Z,41.96
2017-12-04T08:19:17.005Z,42.84
2017-12-04T08:20:16.994Z,39.91
2017-12-04T08:21:17.783Z,43.94
2017-12-04T08:22:16.989Z,39.38
2017-12-04T08:23:16.963Z,36.21
2017-12-04T08:24:16.960Z,33.70
2017-12-04T08:25:16.945Z,36.37
2017-12-04T08:26:16.936Z,36.44
2017-12-04T08:27:16.928Z,38.17
2017-12-04T08:28:16.921Z,39.09
2017-12-04T08:29:16.910Z,33.20
2017-12-04T08:30:16.899Z,34.88
2017-12-04T08:31:16.896Z,36.42
2017-12-04T08:32:16.883Z,34.35
2017-12-04T08:33:16.875Z,34.78
2017-12-04T08:34:16.919Z,35.67
2017-12-04T08:35:16.856Z,36.88
2017-12-04T08:36:16.847Z,35.96
2017-12-04T08:37:16.836Z,34.39
2017-12-04T08:38:16.827Z,37.20
2017-12-04T08:39:16.822Z,34.83
2017-12-04T08:40:16.808Z,37.95
2017-12-04T08:41:16.800Z,36.97
2017-12-04T08:42:16.797Z,32.53
2017-12-04T08:43:16.782Z,32.16
2017-12-04T08:44:16.775Z,35.75
2017-12-04T08:45:16.770Z,31.91
2017-12-04T08:46:16.751Z,38.53
2017-12-04T08:46:28.746Z,1.33
2017-12-04T08:48:16.739Z,32.63
2017-12-04T08:49:16.733Z,34.56
2017-12-04T08:50:16.719Z,34.44
2017-12-04T08:51:16.710Z,34.79
2017-12-04T08:52:16.712Z,32.93
2017-12-04T08:53:16.695Z,36.60
2017-12-04T08:54:16.694Z,34.43
2017-12-04T08:55:16.675Z,34.23
2017-12-04T08:56:16.662Z,35.16
2017-12-04T08:57:16.683Z,31.80
2017-12-04T08:58:16.643Z,31.84
2017-12-04T08:59:16.638Z,34.86
2017-12-04T09:00:16.634Z,37.68
2017-12-04T09:01:16.619Z,33.56
2017-12-04T09:02:16.618Z,30.07
2017-12-04T09:03:16.626Z,31.86
2017-12-04T09:04:16.592Z,38.38
2017-12-04T09:05:16.590Z,35.31
2017-12-04T09:06:16.580Z,32.98
2017-12-04T09:07:16.578Z,30.53
2017-12-04T09:08:16.586Z,35.99
2017-12-04T09:09:16.562Z,34.69
2017-12-04T09:10:16.544Z,30.72
2017-12-04T09:11:16.524Z,34.28
2017-12-04T09:12:16.528Z,33.79
2017-12-04T09:13:17.297Z,32.01
2017-12-04T09:14:16.499Z,30.97
2017-12-04T09:15:16.505Z,34.06
2017-12-04T09:16:16.490Z,35.01
2017-12-04T09:17:16.487Z,28.39
2017-12-04T09:18:16.478Z,25.64
2017-12-04T09:19:16.466Z,31.93
2017-12-04T09:20:16.460Z,37.70
2017-12-04T09:21:16.447Z,33.63
2017-12-04T09:22:17.294Z,37.30
2017-12-04T09:23:16.428Z,35.37
2017-12-04T09:24:16.436Z,35.11
2017-12-04T09:25:16.407Z,31.66
2017-12-04T09:26:16.402Z,37.56
2017-12-04T09:27:16.404Z,37.52
2017-12-04T09:28:19.303Z,34.31
2017-12-04T09:29:16.372Z,33.12
2017-12-04T09:30:16.370Z,34.82
2017-12-04T09:31:16.360Z,32.00
2017-12-04T09:32:16.351Z,31.70
2017-12-04T09:33:16.342Z,34.21
2017-12-04T09:34:16.334Z,32.49
2017-12-04T09:35:16.328Z,34.72
2017-12-04T09:36:16.320Z,36.22
2017-12-04T09:37:16.317Z,38.22
2017-12-04T09:38:16.303Z,34.89
2017-12-04T09:39:16.294Z,33.49
2017-12-04T09:40:16.287Z,35.61
2017-12-04T09:41:16.278Z,37.66
2017-12-04T09:42:16.811Z,35.80
2017-12-04T09:43:16.260Z,33.38
2017-12-04T09:44:16.257Z,36.16
2017-12-04T09:45:16.241Z,37.38
2017-12-04T09:46:16.236Z,37.67
2017-12-04T09:47:16.224Z,28.82
2017-12-04T09:48:16.223Z,36.48
2017-12-04T09:49:16.207Z,37.32
2017-12-04T09:50:16.197Z,36.10
2017-12-04T09:51:16.196Z,35.12
2017-12-04T09:52:16.186Z,38.80
2017-12-04T09:53:16.179Z,38.53
2017-12-04T09:54:16.165Z,35.47
2017-12-04T09:55:16.165Z,35.09
2017-12-04T09:56:16.148Z,34.51
2017-12-04T09:57:16.165Z,39.20
2017-12-04T09:58:16.134Z,32.36
2017-12-04T09:59:16.133Z,34.52
2017-12-04T10:00:16.122Z,31.48
2017-12-04T10:01:16.119Z,31.43
2017-12-04T10:02:16.102Z,36.16
2017-12-04T10:03:16.093Z,37.91
2017-12-04T10:04:16.085Z,32.01
2017-12-04T10:05:16.084Z,31.30
2017-12-04T10:06:16.072Z,36.09
2017-12-04T10:07:16.816Z,35.72
2017-12-04T10:08:16.045Z,35.56
2017-12-04T10:09:16.040Z,36.53
2017-12-04T10:10:16.034Z,32.68
2017-12-04T10:11:16.027Z,37.93
2017-12-04T10:12:16.020Z,35.09
2017-12-04T10:13:16.009Z,34.83
2017-12-04T10:14:15.999Z,31.17
2017-12-04T10:15:15.993Z,31.32
2017-12-04T10:16:15.987Z,34.48
2017-12-04T10:17:15.980Z,32.08
2017-12-04T10:18:15.973Z,31.91
2017-12-04T10:19:15.961Z,35.23
2017-12-04T10:20:15.954Z,32.66
2017-12-04T10:21:15.943Z,37.60
2017-12-04T10:22:15.985Z,32.52
2017-12-04T10:23:15.926Z,34.84
2017-12-04T10:24:15.915Z,35.79
2017-12-04T10:25:15.910Z,35.58
2017-12-04T10:26:15.904Z,33.03
2017-12-04T10:27:15.895Z,36.73
2017-12-04T10:28:15.887Z,36.67
2017-12-04T10:29:15.877Z,35.33
2017-12-04T10:30:15.869Z,32.36
2017-12-04T10:31:15.856Z,35.09
2017-12-04T10:32:15.859Z,36.42
2017-12-04T10:33:15.850Z,34.66
2017-12-04T10:34:15.835Z,33.52
2017-12-04T10:35:15.829Z,31.21
2017-12-04T10:36:15.845Z,32.86
2017-12-04T10:37:15.813Z,42.23
2017-12-04T10:38:15.801Z,43.12
2017-12-04T10:39:15.795Z,41.40
2017-12-04T10:40:15.786Z,32.78
2017-12-04T10:41:15.778Z,33.81
2017-12-04T10:42:15.768Z,36.31
2017-12-04T10:43:15.762Z,36.96
2017-12-04T10:44:15.755Z,34.54
2017-12-04T10:45:15.740Z,33.65
2017-12-04T10:46:15.737Z,36.74
2017-12-04T10:47:22.327Z,39.19
2017-12-04T10:48:15.725Z,39.33
2017-12-04T10:49:15.715Z,41.46
2017-12-04T10:50:15.706Z,38.69
2017-12-04T10:51:15.702Z,45.34
2017-12-04T10:52:15.692Z,41.45
2017-12-04T10:53:15.688Z,39.08
2017-12-04T10:54:16.329Z,40.40
2017-12-04T10:55:15.672Z,42.21
2017-12-04T10:56:15.660Z,47.08
2017-12-04T10:57:15.647Z,43.44
2017-12-04T10:58:15.638Z,46.23
2017-12-04T10:59:15.632Z,46.70
2017-12-04T11:00:16.337Z,47.93
2017-12-04T11:01:15.618Z,45.03
2017-12-04T11:02:15.611Z,50.13
2017-12-04T11:03:15.590Z,53.18
2017-12-04T11:04:15.589Z,45.78
2017-12-04T11:05:15.602Z,46.02
2017-12-04T11:06:15.576Z,49.50
2017-12-04T11:07:16.346Z,46.50
2017-12-04T11:08:15.560Z,49.10
2017-12-04T11:09:15.550Z,49.28
2017-12-04T11:10:15.538Z,47.54
2017-12-04T11:11:15.534Z,47.45
2017-12-04T11:12:15.527Z,42.13
2017-12-04T11:13:15.519Z,45.74
2017-12-04T11:14:15.507Z,49.12
2017-12-04T11:15:15.504Z,47.41
2017-12-04T11:16:15.496Z,45.13
2017-12-04T11:17:15.488Z,56.62
2017-12-04T11:18:15.478Z,42.66
2017-12-04T11:19:15.472Z,49.35
2017-12-04T11:20:15.458Z,44.90
2017-12-04T11:21:15.451Z,39.98
2017-12-04T11:22:15.443Z,40.86
2017-12-04T11:23:15.437Z,43.85
2017-12-04T11:24:15.426Z,46.05
2017-12-04T11:25:15.419Z,44.20
2017-12-04T11:26:15.409Z,44.41
2017-12-04T11:27:15.403Z,43.40
2017-12-04T11:28:15.395Z,39.16
2017-12-04T11:29:16.345Z,38.44
2017-12-04T11:30:15.381Z,39.79
2017-12-04T11:31:15.402Z,42.14
2017-12-04T11:32:15.389Z,41.22
2017-12-04T11:33:15.371Z,40.88
2017-12-04T11:34:15.849Z,40.04
2017-12-04T11:35:15.338Z,37.23
2017-12-04T11:36:15.333Z,42.60
2017-12-04T11:37:15.326Z,39.40
2017-12-04T11:38:15.329Z,34.92
2017-12-04T11:39:15.331Z,36.62
2017-12-04T11:40:15.853Z,39.04
2017-12-04T11:41:15.289Z,35.96
2017-12-04T11:42:15.281Z,36.55
2017-12-04T11:43:15.280Z,35.76
2017-12-04T11:44:15.271Z,33.95
2017-12-04T11:45:15.253Z,38.57
2017-12-04T11:46:15.250Z,38.28
2017-12-04T11:47:15.246Z,38.25
2017-12-04T11:48:15.248Z,33.01
2017-12-04T11:49:15.243Z,35.65
2017-12-04T11:50:15.216Z,36.45
2017-12-04T11:51:15.211Z,33.12
2017-12-04T11:52:15.203Z,33.97
2017-12-04T11:53:15.217Z,35.83
2017-12-04T11:54:15.198Z,33.68
2017-12-04T11:55:15.176Z,36.91
2017-12-04T11:56:15.175Z,42.08
2017-12-04T11:57:15.185Z,37.88
2017-12-04T11:58:15.151Z,38.74
2017-12-04T11:59:15.152Z,41.62
2017-12-04T12:00:15.141Z,42.18
2017-12-04T12:01:15.128Z,43.03
2017-12-04T12:02:15.117Z,37.90
2017-12-04T12:03:15.849Z,35.50
2017-12-04T12:04:15.107Z,32.75
2017-12-04T12:05:15.099Z,37.06
2017-12-04T12:06:15.089Z,40.41
2017-12-04T12:07:15.086Z,35.16
2017-12-04T12:08:15.080Z,37.38
2017-12-04T12:09:15.068Z,42.26
2017-12-04T12:10:15.057Z,43.73
2017-12-04T12:11:15.055Z,38.84
2017-12-04T12:12:15.047Z,36.04
2017-12-04T12:13:15.037Z,43.68
2017-12-04T12:14:15.033Z,38.33
2017-12-04T12:15:15.017Z,37.73
2017-12-04T12:16:15.014Z,41.99
2017-12-04T12:17:15.000Z,36.12
2017-12-04T12:18:14.991Z,40.89
2017-12-04T12:19:14.988Z,41.55
2017-12-04T12:20:14.980Z,41.84
2017-12-04T12:21:14.978Z,40.79
2017-12-04T12:22:14.967Z,43.92
2017-12-04T12:23:14.957Z,43.50
2017-12-04T12:24:14.949Z,43.37
2017-12-04T12:25:14.941Z,46.33
2017-12-04T12:26:14.937Z,50.30
2017-12-04T12:27:14.929Z,43.90
2017-12-04T12:28:14.923Z,43.29
2017-12-04T12:29:14.910Z,49.88
2017-12-04T12:30:14.904Z,45.75
2017-12-04T12:31:14.902Z,45.91
2017-12-04T12:32:14.888Z,47.60
2017-12-04T12:33:14.876Z,49.94
2017-12-04T12:34:14.878Z,41.68
2017-12-04T12:35:14.861Z,49.29
2017-12-04T12:36:15.368Z,55.28
2017-12-04T12:37:14.845Z,45.02
2017-12-04T12:38:14.837Z,53.56
2017-12-04T12:39:14.832Z,48.55
2017-12-04T12:40:14.823Z,47.14
2017-12-04T12:41:14.822Z,47.78
2017-12-04T12:42:14.805Z,51.20
2017-12-04T12:43:14.798Z,48.97
2017-12-04T12:44:14.791Z,53.86
2017-12-04T12:45:14.776Z,49.38
2017-12-04T12:46:14.780Z,48.62
2017-12-04T12:47:14.762Z,46.72
2017-12-04T12:48:14.762Z,47.78
2017-12-04T12:49:14.741Z,53.37
2017-12-04T12:50:14.752Z,52.79
2017-12-04T12:51:14.730Z,55.18
2017-12-04T12:52:14.724Z,51.50